ADDS METAR Data INFO
IDs: Format: Raw Decoded Include TAF

Data at: 0505 UTC 23 May 2017

KTKI 230453Z AUTO 14006KT 10SM FEW012 FEW100 18/17 A2993 RMK AO2 LTG DSNT N SLP136 T01780167
KTKI 230353Z AUTO 14007KT 10SM CLR 19/17 A2993 RMK AO2 SLP134 T01890167
KTKI 230253Z 12005KT 10SM SCT065 19/17 A2994 RMK AO2 SLP138 T01940167 53008
KTKI 230153Z 13007KT 10SM FEW042 21/17 A2992 RMK AO2 SLP134 T02060167
KTKI 230053Z 12007KT 10SM FEW041 22/17 A2991 RMK AO2 SLP129 T02170172
KTKI 222353Z 13005KT 10SM FEW037 SCT050 OVC060 23/17 A2991 RMK AO2 SLP130 T02280167 10256 20228 56017
KTKI 222253Z 11007KT 10SM CLR 25/16 A2993 RMK AO2 SLP133 T02500161
KTKI 222153Z 11005KT 10SM BKN043 26/16 A2995 RMK AO2 SLP140 T02560161
KTKI 222053Z 17007KT 10SM SCT037 BKN060 26/16 A2997 RMK AO2 SLP145 T02560156 56027
KTKI 221953Z 13009KT 10SM BKN035 OVC055 24/16 A2999 RMK AO2 SLP153 T02390161
KTKI 221853Z 13007KT 110V170 10SM BKN035 24/16 A3000 RMK AO2 SLP159 T02390156
KTKI 221753Z 11004KT 10SM BKN035 23/15 A3005 RMK AO2 SLP174 T02330150 10239 20167 58015
KTKI 221653Z 09005KT 10SM BKN036 23/14 A3007 RMK AO2 SLP182 T02280144
KTKI 221553Z 11009KT 080V140 10SM CLR 22/16 A3007 RMK AO2 SLP183 T02170156
KTKI 221453Z 10009KT 10SM FEW018 FEW029 BKN039 19/16 A3009 RMK AO2 SLP190 T01890161 58001
KTKI 221353Z 12007KT 10SM BKN021 18/16 A3010 RMK AO2 SLP193 T01830156
KTKI 221253Z 12006KT 10SM BKN023 BKN028 17/17 A3009 RMK AO2 SLP189 T01720167
KTKI 221153Z 00000KT 10SM CLR 16/16 A3009 RMK AO2 SLP190 60004 70005 T01610161 10194 20161 55005
KTKI 221053Z AUTO 14003KT 10SM CLR 17/17 A3009 RMK AO2 RAE08 SLP189 P0000 T01720167
KTKI 220953Z AUTO 14003KT 10SM -RA BKN046 OVC110 17/17 A3010 RMK AO2 RAB07 SLP192 P0002 T01720172
KTKI 220853Z AUTO 00000KT 10SM FEW055 BKN120 18/17 A3011 RMK AO2 RAE42 SLP194 P0001 60002 T01780167 55009
KTKI 220753Z AUTO 31003KT 10SM -RA OVC100 17/16 A3010 RMK AO2 RAE0654B11 SLP192 P0001 T01720161
KTKI 220653Z AUTO 08005KT 10SM -RA FEW080 SCT110 18/14 A3011 RMK AO2 RAB19 SLP193 P0000 T01830144
KTKI 220553Z AUTO 06005KT 10SM BKN085 BKN110 19/13 A3014 RMK AO2 SLP203 T01890133 10244 20189 402670156 51014
KTKI 220453Z AUTO 14006KT 10SM BKN080 19/13 A3013 RMK AO2 SLP200 T01940128
KTKI 220353Z AUTO 06004KT 10SM CLR 21/11 A3011 RMK AO2 SLP197 T02060111
KTKI 220253Z 04006KT 10SM CLR 21/11 A3009 RMK AO2 SLP191 T02110111 53001
KTKI 220153Z 08003KT 10SM BKN120 21/12 A3009 RMK AO2 SLP191 T02110117
KTKI 220053Z 06004KT 10SM FEW110 22/12 A3008 RMK AO2 SLP186 T02220117
KTKI 212353Z 04008KT 10SM CLR 24/11 A3009 RMK AO2 SLP189 T02440111 10267 20244 56007
KTKI 212253Z 09008KT 10SM FEW110 25/11 A3009 RMK AO2 SLP189 T02500111
KTKI 212153Z 05008KT 10SM CLR 26/12 A3009 RMK AO2 SLP186 T02610117
KTKI 212053Z 04008G15KT 10SM CLR 26/12 A3011 RMK AO2 SLP196 T02560117 56015
KTKI 211953Z 04013G17KT 10SM CLR 26/12 A3011 RMK AO2 SLP196 T02610117
KTKI 211853Z 05009G19KT 10SM SCT120 26/10 A3013 RMK AO2 SLP203 T02560100
KTKI 211753Z 04010G17KT 10SM CLR 24/09 A3016 RMK AO2 SLP211 60001 T02440089 10250 20161 58006


Page loaded:  05:05 UTC  |   10:05 PM Pacific  |   11:05 PM Mountain  |   12:05 AM Central  |   01:05 AM Eastern

 

ADVISORIES

FORECASTS

FORECASTS

OBSERVATIONS

USER TOOLS

ABOUT US